createdAt,value
2018-07-02T00:04:01.419Z,10.56
2018-07-02T00:09:06.849Z,10.33
2018-07-02T00:14:12.158Z,10.10
2018-07-02T00:19:15.745Z,9.86
2018-07-02T00:24:18.981Z,9.65
2018-07-02T00:29:22.223Z,9.51
2018-07-02T00:34:26.363Z,9.31
2018-07-02T00:39:30.092Z,9.19
2018-07-02T00:44:33.257Z,9.06
2018-07-02T00:49:36.364Z,8.93
2018-07-02T00:54:39.471Z,8.75
2018-07-02T00:59:43.163Z,8.66
2018-07-02T01:04:46.342Z,8.62
2018-07-02T01:09:49.563Z,8.77
2018-07-02T01:14:53.370Z,8.51
2018-07-02T01:19:56.487Z,8.40
2018-07-02T01:25:01.892Z,8.38
2018-07-02T01:30:05.009Z,8.36
2018-07-02T01:35:08.142Z,8.40
2018-07-02T01:40:11.267Z,8.31
2018-07-02T01:45:14.394Z,8.13
2018-07-02T01:50:17.574Z,8.05
2018-07-02T01:55:21.848Z,7.88
2018-07-02T02:00:25.044Z,7.85
2018-07-02T02:05:28.175Z,7.80
2018-07-02T02:10:31.400Z,7.66
2018-07-02T02:15:34.505Z,7.65
2018-07-02T02:20:37.877Z,7.47
2018-07-02T02:25:40.983Z,7.43
2018-07-02T02:30:44.085Z,7.36
2018-07-02T02:35:47.239Z,7.23
2018-07-02T02:40:50.432Z,7.09
2018-07-02T02:45:53.589Z,7.02
2018-07-02T02:50:56.720Z,7.04
2018-07-02T02:55:59.956Z,7.16
2018-07-02T03:01:03.117Z,7.18
2018-07-02T03:06:06.232Z,7.08
2018-07-02T03:11:09.442Z,7.19
2018-07-02T03:16:13.184Z,7.22
2018-07-02T03:21:16.845Z,7.13
2018-07-02T03:26:20.019Z,7.16
2018-07-02T03:31:23.221Z,7.24
2018-07-02T03:36:26.330Z,7.36
2018-07-02T03:41:29.494Z,7.42
2018-07-02T03:46:32.712Z,7.49
2018-07-02T03:51:35.851Z,7.55
2018-07-02T03:56:39.024Z,7.62
2018-07-02T04:01:42.089Z,7.82
2018-07-02T04:06:45.371Z,8.03
2018-07-02T04:11:48.549Z,8.48
2018-07-02T04:16:52.303Z,9.41
2018-07-02T04:21:55.418Z,10.18
2018-07-02T04:26:58.548Z,11.05
2018-07-02T04:32:01.703Z,18.04
2018-07-02T04:37:04.871Z,21.66
2018-07-02T04:42:08.439Z,23.40
2018-07-02T04:47:11.536Z,23.85
2018-07-02T04:52:14.631Z,24.12
2018-07-02T04:57:17.799Z,26.22
2018-07-02T05:02:21.036Z,26.22
2018-07-02T05:07:24.749Z,26.61
2018-07-02T05:12:28.201Z,27.70
2018-07-02T05:17:31.279Z,28.02
2018-07-02T05:22:34.395Z,28.55
2018-07-02T05:27:37.511Z,28.29
2018-07-02T05:32:40.625Z,29.18
2018-07-02T05:37:43.825Z,28.70
2018-07-02T05:42:47.078Z,29.55
2018-07-02T05:47:50.387Z,30.44
2018-07-02T05:52:53.941Z,28.87
2018-07-02T05:57:57.127Z,29.37
2018-07-02T06:03:00.261Z,31.73
2018-07-02T06:08:03.452Z,30.94
2018-07-02T06:13:06.650Z,32.61
2018-07-02T06:18:09.803Z,34.06
2018-07-02T06:23:14.199Z,31.35
2018-07-02T06:28:17.497Z,32.70
2018-07-02T06:33:20.851Z,33.44
2018-07-02T06:38:24.127Z,32.94
2018-07-02T06:43:27.365Z,33.62
2018-07-02T06:48:31.084Z,32.38
2018-07-02T06:53:34.712Z,31.73
2018-07-02T06:58:37.784Z,32.33
2018-07-02T07:03:40.926Z,33.21
2018-07-02T07:08:44.149Z,33.76
2018-07-02T07:13:47.824Z,33.87
2018-07-02T07:18:51.202Z,34.77
2018-07-02T07:23:54.445Z,34.48
2018-07-02T07:28:57.721Z,32.80
2018-07-02T07:34:01.646Z,31.52
2018-07-02T07:39:07.383Z,33.56
2018-07-02T07:44:11.043Z,33.23
2018-07-02T07:49:14.223Z,32.79
2018-07-02T07:54:17.369Z,32.30
2018-07-02T07:59:20.568Z,32.57
2018-07-02T08:04:23.689Z,30.83
2018-07-02T08:09:27.055Z,31.84
2018-07-02T08:14:30.546Z,31.66
2018-07-02T08:19:33.825Z,30.71
2018-07-02T08:24:36.996Z,30.90
2018-07-02T08:29:40.128Z,32.05
2018-07-02T08:34:43.275Z,31.15
2018-07-02T08:39:46.403Z,32.78
2018-07-02T08:44:49.533Z,33.19
2018-07-02T08:49:52.743Z,33.31
2018-07-02T08:54:55.856Z,32.35
2018-07-02T08:59:59.132Z,32.79
2018-07-02T09:05:02.354Z,31.95
2018-07-02T09:10:05.600Z,32.20
2018-07-02T09:15:08.783Z,31.80
2018-07-02T09:20:11.996Z,32.01
2018-07-02T09:25:16.154Z,31.80
2018-07-02T09:30:19.283Z,27.44
2018-07-02T09:35:22.497Z,29.22
2018-07-02T09:40:25.692Z,29.25
2018-07-02T09:45:29.240Z,31.57
2018-07-02T09:50:32.434Z,29.70
2018-07-02T09:55:35.705Z,29.36
2018-07-02T10:00:38.903Z,30.53
2018-07-02T10:05:42.181Z,30.76
2018-07-02T10:10:45.328Z,27.93
2018-07-02T10:15:48.549Z,29.19
2018-07-02T10:20:51.855Z,29.07
2018-07-02T10:25:55.037Z,25.99
2018-07-02T10:30:58.846Z,22.74
2018-07-02T10:36:02.173Z,25.65
2018-07-02T10:41:06.272Z,24.96
2018-07-02T10:46:09.946Z,23.88
2018-07-02T10:51:13.081Z,27.09
2018-07-02T10:56:16.243Z,27.42
2018-07-02T11:01:19.430Z,26.85
2018-07-02T11:06:22.541Z,27.85
2018-07-02T11:11:25.894Z,27.71
2018-07-02T11:16:29.373Z,27.12
2018-07-02T11:21:32.583Z,26.38
2018-07-02T11:26:35.830Z,25.91
2018-07-02T11:31:39.041Z,25.33
2018-07-02T11:36:42.245Z,24.58
2018-07-02T11:41:45.461Z,24.83
2018-07-02T11:46:49.161Z,26.14
2018-07-02T11:51:52.304Z,25.35
2018-07-02T11:56:55.408Z,25.77
2018-07-02T12:01:58.763Z,26.48
2018-07-02T12:07:02.043Z,27.02
2018-07-02T12:12:05.691Z,27.73
2018-07-02T12:17:08.946Z,27.45
2018-07-02T12:22:12.063Z,27.54
2018-07-02T12:27:15.830Z,27.29
2018-07-02T12:32:18.994Z,26.01
2018-07-02T12:37:22.360Z,24.57
2018-07-02T12:42:25.875Z,23.99
2018-07-02T12:47:29.355Z,25.45
2018-07-02T12:52:32.855Z,26.81
2018-07-02T12:57:36.043Z,27.77
2018-07-02T13:02:39.479Z,27.49
2018-07-02T13:07:42.634Z,26.97
2018-07-02T13:12:45.721Z,26.62
2018-07-02T13:17:48.854Z,27.09
2018-07-02T13:22:51.989Z,27.12
2018-07-02T13:27:55.303Z,27.90
2018-07-02T13:32:58.916Z,26.41
2018-07-02T13:38:02.239Z,24.25
2018-07-02T13:43:05.510Z,24.09
2018-07-02T13:48:08.658Z,24.61
2018-07-02T13:53:11.911Z,25.30
2018-07-02T13:58:15.020Z,26.65
2018-07-02T14:03:18.167Z,25.77
2018-07-02T14:08:21.527Z,26.40
2018-07-02T14:13:24.656Z,26.84
2018-07-02T14:18:27.905Z,26.36
2018-07-02T14:23:31.503Z,27.25
2018-07-02T14:28:34.753Z,26.43
2018-07-02T14:33:38.400Z,26.31
2018-07-02T14:38:41.615Z,26.95
2018-07-02T14:43:44.906Z,27.39
2018-07-02T14:48:48.077Z,25.63
2018-07-02T14:53:51.382Z,27.11
2018-07-02T14:58:54.630Z,28.39
2018-07-02T15:03:58.054Z,27.83
2018-07-02T15:09:01.453Z,27.81
2018-07-02T15:14:05.670Z,27.61
2018-07-02T15:19:08.812Z,28.98
2018-07-02T15:24:12.025Z,28.42
2018-07-02T15:29:15.200Z,27.48
2018-07-02T15:34:18.271Z,27.59
2018-07-02T15:39:21.525Z,25.86
2018-07-02T15:44:24.656Z,25.52
2018-07-02T15:49:28.308Z,26.30
2018-07-02T15:54:31.512Z,25.39
2018-07-02T15:59:34.761Z,25.10
2018-07-02T16:04:37.926Z,25.93
2018-07-02T16:09:41.067Z,26.98
2018-07-02T16:14:44.789Z,26.36
2018-07-02T16:19:47.934Z,25.30
2018-07-02T16:24:51.077Z,25.20
2018-07-02T16:29:54.294Z,25.59
2018-07-02T16:34:57.657Z,25.27
2018-07-02T16:40:01.073Z,24.78
2018-07-02T16:45:04.395Z,25.02
2018-07-02T16:50:07.513Z,25.59
2018-07-02T16:55:10.655Z,24.54
2018-07-02T17:00:13.910Z,24.58
2018-07-02T17:05:17.210Z,24.01
2018-07-02T17:10:20.496Z,23.37
2018-07-02T17:15:23.616Z,23.43
2018-07-02T17:20:26.883Z,24.27
2018-07-02T17:25:30.108Z,25.17
2018-07-02T17:30:33.274Z,24.34
2018-07-02T17:35:36.651Z,24.82
2018-07-02T17:40:39.869Z,24.80
2018-07-02T17:45:43.017Z,25.43
2018-07-02T17:50:46.180Z,24.95
2018-07-02T17:55:49.363Z,24.39
2018-07-02T18:00:52.660Z,24.84
2018-07-02T18:05:55.846Z,25.19
2018-07-02T18:10:59.601Z,25.13
2018-07-02T18:16:03.125Z,25.33
2018-07-02T18:21:06.598Z,25.10
2018-07-02T18:26:09.905Z,24.83
2018-07-02T18:31:13.053Z,24.52
2018-07-02T18:36:16.640Z,24.62
2018-07-02T18:41:31.358Z,24.16
2018-07-02T18:46:35.488Z,23.91
2018-07-02T18:51:38.995Z,23.42
2018-07-02T18:56:42.307Z,22.87
2018-07-02T19:01:48.954Z,22.45
2018-07-02T19:06:56.841Z,21.94
2018-07-02T19:12:00.221Z,21.66
2018-07-02T19:17:03.484Z,21.22
2018-07-02T19:22:10.452Z,20.94
2018-07-02T19:27:13.813Z,20.65
2018-07-02T19:32:19.406Z,20.41
2018-07-02T19:37:24.657Z,20.09
2018-07-02T19:42:28.015Z,19.96
2018-07-02T19:47:31.644Z,20.01
2018-07-02T19:52:37.111Z,19.77
2018-07-02T19:57:42.363Z,19.56
2018-07-02T20:02:48.376Z,19.25
2018-07-02T20:07:54.987Z,18.98
2018-07-02T20:12:59.768Z,18.55
2018-07-02T20:18:06.057Z,17.98
2018-07-02T20:23:09.652Z,17.39
2018-07-02T20:28:13.082Z,16.96
2018-07-02T20:33:17.205Z,16.56
2018-07-02T20:38:22.879Z,16.26
2018-07-02T20:43:29.486Z,15.92
2018-07-02T20:48:35.251Z,15.59
2018-07-02T20:53:42.183Z,15.40
2018-07-02T20:58:46.425Z,15.13
2018-07-02T21:03:49.699Z,14.96
2018-07-02T21:08:58.399Z,14.69
2018-07-02T21:14:04.602Z,14.58
2018-07-02T21:19:10.246Z,14.37
2018-07-02T21:24:16.680Z,14.17
2018-07-02T21:29:24.474Z,14.03
2018-07-02T21:34:28.055Z,13.87
2018-07-02T21:39:31.903Z,13.70
2018-07-02T21:44:36.242Z,13.56
2018-07-02T21:49:41.295Z,13.43
2018-07-02T21:54:46.698Z,13.26
2018-07-02T21:59:50.228Z,13.12
2018-07-02T22:04:59.899Z,13.05
2018-07-02T22:10:06.025Z,12.95
2018-07-02T22:20:19.984Z,12.64
2018-07-02T22:25:24.255Z,12.59
2018-07-02T22:30:31.189Z,12.51
2018-07-02T22:35:38.412Z,12.33
2018-07-02T22:40:41.933Z,12.21
2018-07-02T22:45:45.061Z,12.07
2018-07-02T22:50:48.194Z,11.91
2018-07-02T22:55:58.750Z,11.79
2018-07-02T23:01:01.944Z,11.70
2018-07-02T23:06:05.470Z,11.60
2018-07-02T23:11:08.662Z,11.47
2018-07-02T23:16:11.772Z,11.40
2018-07-02T23:37:14.368Z,11.10
2018-07-02T23:42:17.507Z,11.02
2018-07-02T23:47:20.592Z,10.88
2018-07-02T23:52:23.711Z,10.73
2018-07-02T23:57:26.866Z,10.62
